sensor_id;sensor_type;location;lat;lon;timestamp;P1;durP1;ratioP1;P2;durP2;ratioP2
20480;SDS011;10399;50.754;3.366;2023-09-07T00:02:09;15.52;;;8.30;;
20480;SDS011;10399;50.754;3.366;2023-09-07T00:04:37;12.63;;;9.18;;
20480;SDS011;10399;50.754;3.366;2023-09-07T00:07:04;16.67;;;9.45;;
20480;SDS011;10399;50.754;3.366;2023-09-07T00:09:31;15.40;;;9.45;;
20480;SDS011;10399;50.754;3.366;2023-09-07T00:11:58;18.73;;;10.50;;
20480;SDS011;10399;50.754;3.366;2023-09-07T00:14:25;13.77;;;9.48;;
20480;SDS011;10399;50.754;3.366;2023-09-07T00:16:52;12.68;;;9.60;;
20480;SDS011;10399;50.754;3.366;2023-09-07T00:19:19;17.98;;;10.02;;
20480;SDS011;10399;50.754;3.366;2023-09-07T00:21:47;15.15;;;10.02;;
20480;SDS011;10399;50.754;3.366;2023-09-07T00:24:14;15.48;;;9.70;;
20480;SDS011;10399;50.754;3.366;2023-09-07T00:26:42;17.05;;;9.95;;
20480;SDS011;10399;50.754;3.366;2023-09-07T00:29:09;13.73;;;9.55;;
20480;SDS011;10399;50.754;3.366;2023-09-07T00:31:36;19.15;;;10.00;;
20480;SDS011;10399;50.754;3.366;2023-09-07T00:34:03;16.15;;;10.43;;
20480;SDS011;10399;50.754;3.366;2023-09-07T00:36:30;13.23;;;10.05;;
20480;SDS011;10399;50.754;3.366;2023-09-07T00:38:57;17.75;;;10.35;;
20480;SDS011;10399;50.754;3.366;2023-09-07T00:41:24;12.77;;;9.55;;
20480;SDS011;10399;50.754;3.366;2023-09-07T00:43:52;15.10;;;9.35;;
20480;SDS011;10399;50.754;3.366;2023-09-07T00:46:19;14.18;;;9.48;;
20480;SDS011;10399;50.754;3.366;2023-09-07T00:48:47;12.88;;;8.88;;
20480;SDS011;10399;50.754;3.366;2023-09-07T00:51:15;14.65;;;9.93;;
20480;SDS011;10399;50.754;3.366;2023-09-07T00:53:42;12.43;;;9.68;;
20480;SDS011;10399;50.754;3.366;2023-09-07T00:56:10;16.30;;;10.05;;
20480;SDS011;10399;50.754;3.366;2023-09-07T00:58:38;15.55;;;10.00;;
20480;SDS011;10399;50.754;3.366;2023-09-07T01:01:05;14.98;;;9.18;;
20480;SDS011;10399;50.754;3.366;2023-09-07T01:03:32;12.68;;;9.43;;
20480;SDS011;10399;50.754;3.366;2023-09-07T01:08:35;16.17;;;10.18;;
20480;SDS011;10399;50.754;3.366;2023-09-07T01:11:16;14.73;;;9.10;;
20480;SDS011;10399;50.754;3.366;2023-09-07T01:13:43;13.40;;;9.55;;
20480;SDS011;10399;50.754;3.366;2023-09-07T01:16:11;13.65;;;9.57;;
20480;SDS011;10399;50.754;3.366;2023-09-07T01:18:39;12.93;;;9.02;;
20480;SDS011;10399;50.754;3.366;2023-09-07T01:21:08;14.77;;;8.95;;
20480;SDS011;10399;50.754;3.366;2023-09-07T01:23:37;12.98;;;9.15;;
20480;SDS011;10399;50.754;3.366;2023-09-07T01:26:07;12.20;;;9.60;;
20480;SDS011;10399;50.754;3.366;2023-09-07T01:28:36;11.65;;;9.02;;
20480;SDS011;10399;50.754;3.366;2023-09-07T01:31:04;12.35;;;9.43;;
20480;SDS011;10399;50.754;3.366;2023-09-07T01:33:33;15.05;;;9.85;;
20480;SDS011;10399;50.754;3.366;2023-09-07T01:36:00;11.93;;;8.98;;
20480;SDS011;10399;50.754;3.366;2023-09-07T01:38:27;15.50;;;9.98;;
20480;SDS011;10399;50.754;3.366;2023-09-07T01:40:55;15.23;;;9.13;;
20480;SDS011;10399;50.754;3.366;2023-09-07T01:43:22;13.50;;;8.73;;
20480;SDS011;10399;50.754;3.366;2023-09-07T01:45:49;13.07;;;8.90;;
20480;SDS011;10399;50.754;3.366;2023-09-07T01:48:16;11.63;;;8.60;;
20480;SDS011;10399;50.754;3.366;2023-09-07T01:50:43;10.18;;;8.43;;
20480;SDS011;10399;50.754;3.366;2023-09-07T01:53:10;12.80;;;9.45;;
20480;SDS011;10399;50.754;3.366;2023-09-07T01:55:37;13.00;;;8.73;;
20480;SDS011;10399;50.754;3.366;2023-09-07T01:58:04;12.82;;;8.25;;
20480;SDS011;10399;50.754;3.366;2023-09-07T02:00:35;12.45;;;8.45;;
20480;SDS011;10399;50.754;3.366;2023-09-07T02:03:04;13.77;;;8.20;;
20480;SDS011;10399;50.754;3.366;2023-09-07T02:05:32;13.63;;;9.05;;
20480;SDS011;10399;50.754;3.366;2023-09-07T02:07:59;11.98;;;8.52;;
20480;SDS011;10399;50.754;3.366;2023-09-07T02:10:27;13.00;;;9.23;;
20480;SDS011;10399;50.754;3.366;2023-09-07T02:12:54;13.75;;;9.27;;
20480;SDS011;10399;50.754;3.366;2023-09-07T02:15:23;12.80;;;9.00;;
20480;SDS011;10399;50.754;3.366;2023-09-07T02:17:50;16.13;;;8.70;;
20480;SDS011;10399;50.754;3.366;2023-09-07T02:20:19;12.13;;;8.90;;
20480;SDS011;10399;50.754;3.366;2023-09-07T02:22:46;12.75;;;8.77;;
20480;SDS011;10399;50.754;3.366;2023-09-07T02:25:13;12.27;;;8.65;;
20480;SDS011;10399;50.754;3.366;2023-09-07T02:27:40;16.98;;;10.00;;
20480;SDS011;10399;50.754;3.366;2023-09-07T02:30:08;13.73;;;9.02;;
20480;SDS011;10399;50.754;3.366;2023-09-07T02:32:35;12.23;;;9.25;;
20480;SDS011;10399;50.754;3.366;2023-09-07T02:35:02;15.32;;;9.52;;
20480;SDS011;10399;50.754;3.366;2023-09-07T02:37:30;15.18;;;9.52;;
20480;SDS011;10399;50.754;3.366;2023-09-07T02:39:58;13.88;;;9.30;;
20480;SDS011;10399;50.754;3.366;2023-09-07T02:42:25;16.20;;;10.07;;
20480;SDS011;10399;50.754;3.366;2023-09-07T02:44:52;15.98;;;10.00;;
20480;SDS011;10399;50.754;3.366;2023-09-07T02:47:20;14.55;;;10.30;;
20480;SDS011;10399;50.754;3.366;2023-09-07T02:49:47;14.60;;;9.25;;
20480;SDS011;10399;50.754;3.366;2023-09-07T02:52:14;14.63;;;10.15;;
20480;SDS011;10399;50.754;3.366;2023-09-07T02:54:41;14.25;;;9.27;;
20480;SDS011;10399;50.754;3.366;2023-09-07T02:57:08;12.32;;;8.90;;
20480;SDS011;10399;50.754;3.366;2023-09-07T02:59:35;21.05;;;10.25;;
20480;SDS011;10399;50.754;3.366;2023-09-07T03:02:02;13.63;;;9.52;;
20480;SDS011;10399;50.754;3.366;2023-09-07T03:04:29;16.27;;;10.13;;
20480;SDS011;10399;50.754;3.366;2023-09-07T03:06:57;13.70;;;9.13;;
20480;SDS011;10399;50.754;3.366;2023-09-07T03:09:26;16.02;;;9.38;;
20480;SDS011;10399;50.754;3.366;2023-09-07T03:11:53;13.10;;;9.00;;
20480;SDS011;10399;50.754;3.366;2023-09-07T03:14:20;10.95;;;8.55;;
20480;SDS011;10399;50.754;3.366;2023-09-07T03:16:48;12.20;;;8.82;;
20480;SDS011;10399;50.754;3.366;2023-09-07T03:19:16;13.27;;;8.80;;
20480;SDS011;10399;50.754;3.366;2023-09-07T03:21:43;15.40;;;9.95;;
20480;SDS011;10399;50.754;3.366;2023-09-07T03:24:10;17.92;;;9.35;;
20480;SDS011;10399;50.754;3.366;2023-09-07T03:26:38;16.48;;;8.70;;
20480;SDS011;10399;50.754;3.366;2023-09-07T03:29:06;15.57;;;9.35;;
20480;SDS011;10399;50.754;3.366;2023-09-07T03:31:33;17.15;;;8.18;;
20480;SDS011;10399;50.754;3.366;2023-09-07T03:34:00;13.95;;;9.20;;
20480;SDS011;10399;50.754;3.366;2023-09-07T03:36:27;14.43;;;8.65;;
20480;SDS011;10399;50.754;3.366;2023-09-07T03:38:54;15.32;;;9.27;;
20480;SDS011;10399;50.754;3.366;2023-09-07T03:41:21;12.38;;;8.02;;
20480;SDS011;10399;50.754;3.366;2023-09-07T03:43:48;12.40;;;8.40;;
20480;SDS011;10399;50.754;3.366;2023-09-07T03:46:15;11.57;;;7.70;;
20480;SDS011;10399;50.754;3.366;2023-09-07T03:48:43;12.60;;;8.55;;
20480;SDS011;10399;50.754;3.366;2023-09-07T03:51:10;13.27;;;8.52;;
20480;SDS011;10399;50.754;3.366;2023-09-07T03:53:37;12.82;;;8.23;;
20480;SDS011;10399;50.754;3.366;2023-09-07T03:56:04;15.23;;;8.45;;
20480;SDS011;10399;50.754;3.366;2023-09-07T03:58:31;12.15;;;8.35;;
20480;SDS011;10399;50.754;3.366;2023-09-07T04:00:59;13.32;;;8.68;;
20480;SDS011;10399;50.754;3.366;2023-09-07T04:03:26;10.93;;;8.35;;
20480;SDS011;10399;50.754;3.366;2023-09-07T04:05:53;13.13;;;7.93;;
20480;SDS011;10399;50.754;3.366;2023-09-07T04:08:21;10.90;;;8.05;;
20480;SDS011;10399;50.754;3.366;2023-09-07T04:10:48;12.25;;;7.95;;
20480;SDS011;10399;50.754;3.366;2023-09-07T04:13:15;15.13;;;8.43;;
20480;SDS011;10399;50.754;3.366;2023-09-07T04:15:42;14.82;;;8.10;;
20480;SDS011;10399;50.754;3.366;2023-09-07T04:18:13;10.77;;;8.82;;
20480;SDS011;10399;50.754;3.366;2023-09-07T04:20:43;14.23;;;8.15;;
20480;SDS011;10399;50.754;3.366;2023-09-07T04:23:10;13.63;;;8.30;;
20480;SDS011;10399;50.754;3.366;2023-09-07T04:25:37;12.70;;;8.32;;
20480;SDS011;10399;50.754;3.366;2023-09-07T04:28:08;11.18;;;8.25;;
20480;SDS011;10399;50.754;3.366;2023-09-07T04:30:38;14.82;;;8.07;;
20480;SDS011;10399;50.754;3.366;2023-09-07T04:33:06;11.60;;;7.38;;
20480;SDS011;10399;50.754;3.366;2023-09-07T04:35:33;10.75;;;7.65;;
20480;SDS011;10399;50.754;3.366;2023-09-07T04:38:00;12.25;;;7.90;;
20480;SDS011;10399;50.754;3.366;2023-09-07T04:40:27;22.88;;;8.77;;
20480;SDS011;10399;50.754;3.366;2023-09-07T04:42:54;21.63;;;8.80;;
20480;SDS011;10399;50.754;3.366;2023-09-07T04:45:22;26.15;;;9.65;;
20480;SDS011;10399;50.754;3.366;2023-09-07T04:47:49;29.58;;;11.18;;
20480;SDS011;10399;50.754;3.366;2023-09-07T04:50:17;33.83;;;9.35;;
20480;SDS011;10399;50.754;3.366;2023-09-07T04:52:44;23.95;;;10.20;;
20480;SDS011;10399;50.754;3.366;2023-09-07T04:55:12;25.13;;;12.27;;
20480;SDS011;10399;50.754;3.366;2023-09-07T04:57:38;21.95;;;10.27;;
20480;SDS011;10399;50.754;3.366;2023-09-07T05:00:06;26.92;;;11.20;;
20480;SDS011;10399;50.754;3.366;2023-09-07T05:02:35;22.90;;;11.27;;
20480;SDS011;10399;50.754;3.366;2023-09-07T05:05:08;21.55;;;11.45;;
20480;SDS011;10399;50.754;3.366;2023-09-07T05:07:35;23.02;;;11.80;;
20480;SDS011;10399;50.754;3.366;2023-09-07T05:10:02;23.48;;;11.85;;
20480;SDS011;10399;50.754;3.366;2023-09-07T05:12:30;21.95;;;11.70;;
20480;SDS011;10399;50.754;3.366;2023-09-07T05:14:57;24.17;;;13.30;;
20480;SDS011;10399;50.754;3.366;2023-09-07T05:17:24;18.50;;;11.40;;
20480;SDS011;10399;50.754;3.366;2023-09-07T05:19:51;17.13;;;11.48;;
20480;SDS011;10399;50.754;3.366;2023-09-07T05:22:18;20.92;;;12.45;;
20480;SDS011;10399;50.754;3.366;2023-09-07T05:24:46;21.70;;;12.10;;
20480;SDS011;10399;50.754;3.366;2023-09-07T05:27:14;28.23;;;12.98;;
20480;SDS011;10399;50.754;3.366;2023-09-07T05:29:41;18.77;;;12.10;;
20480;SDS011;10399;50.754;3.366;2023-09-07T05:32:09;23.35;;;12.38;;
20480;SDS011;10399;50.754;3.366;2023-09-07T05:34:36;20.92;;;12.68;;
20480;SDS011;10399;50.754;3.366;2023-09-07T05:37:03;25.25;;;12.73;;
20480;SDS011;10399;50.754;3.366;2023-09-07T05:39:30;32.88;;;13.68;;
20480;SDS011;10399;50.754;3.366;2023-09-07T05:41:57;21.20;;;11.82;;
20480;SDS011;10399;50.754;3.366;2023-09-07T05:44:24;20.63;;;11.10;;
20480;SDS011;10399;50.754;3.366;2023-09-07T05:46:51;17.63;;;11.68;;
20480;SDS011;10399;50.754;3.366;2023-09-07T05:49:33;16.15;;;11.27;;
20480;SDS011;10399;50.754;3.366;2023-09-07T05:52:00;21.75;;;11.85;;
20480;SDS011;10399;50.754;3.366;2023-09-07T05:54:27;18.17;;;11.00;;
20480;SDS011;10399;50.754;3.366;2023-09-07T05:56:54;16.45;;;10.75;;
20480;SDS011;10399;50.754;3.366;2023-09-07T05:59:21;26.02;;;11.70;;
20480;SDS011;10399;50.754;3.366;2023-09-07T06:01:48;19.20;;;11.35;;
20480;SDS011;10399;50.754;3.366;2023-09-07T06:04:15;17.63;;;11.05;;
20480;SDS011;10399;50.754;3.366;2023-09-07T06:06:43;21.00;;;12.00;;
20480;SDS011;10399;50.754;3.366;2023-09-07T06:09:10;17.27;;;11.35;;
20480;SDS011;10399;50.754;3.366;2023-09-07T06:11:37;16.75;;;11.18;;
20480;SDS011;10399;50.754;3.366;2023-09-07T06:14:04;14.23;;;10.45;;
20480;SDS011;10399;50.754;3.366;2023-09-07T06:16:31;20.88;;;11.20;;
20480;SDS011;10399;50.754;3.366;2023-09-07T06:18:58;19.08;;;10.82;;
20480;SDS011;10399;50.754;3.366;2023-09-07T06:21:25;30.58;;;11.32;;
20480;SDS011;10399;50.754;3.366;2023-09-07T06:23:53;26.15;;;10.60;;
20480;SDS011;10399;50.754;3.366;2023-09-07T06:26:20;25.27;;;11.45;;
20480;SDS011;10399;50.754;3.366;2023-09-07T06:28:47;34.15;;;10.88;;
20480;SDS011;10399;50.754;3.366;2023-09-07T06:31:14;22.48;;;9.88;;
20480;SDS011;10399;50.754;3.366;2023-09-07T06:33:44;23.50;;;9.68;;
20480;SDS011;10399;50.754;3.366;2023-09-07T06:36:11;15.05;;;8.85;;
20480;SDS011;10399;50.754;3.366;2023-09-07T06:38:38;21.05;;;9.70;;
20480;SDS011;10399;50.754;3.366;2023-09-07T06:41:05;15.55;;;8.98;;
20480;SDS011;10399;50.754;3.366;2023-09-07T06:43:34;18.50;;;8.68;;
20480;SDS011;10399;50.754;3.366;2023-09-07T06:46:05;23.98;;;9.10;;
20480;SDS011;10399;50.754;3.366;2023-09-07T06:48:36;23.98;;;8.95;;
20480;SDS011;10399;50.754;3.366;2023-09-07T06:51:04;24.15;;;8.63;;
20480;SDS011;10399;50.754;3.366;2023-09-07T06:53:32;14.30;;;8.15;;
20480;SDS011;10399;50.754;3.366;2023-09-07T06:56:19;16.75;;;7.75;;
20480;SDS011;10399;50.754;3.366;2023-09-07T06:58:46;15.88;;;7.70;;
20480;SDS011;10399;50.754;3.366;2023-09-07T07:01:13;13.07;;;8.18;;
20480;SDS011;10399;50.754;3.366;2023-09-07T07:03:40;23.63;;;8.82;;
20480;SDS011;10399;50.754;3.366;2023-09-07T07:06:08;16.95;;;8.65;;
20480;SDS011;10399;50.754;3.366;2023-09-07T07:08:35;17.20;;;9.20;;
20480;SDS011;10399;50.754;3.366;2023-09-07T07:11:02;22.08;;;8.90;;
20480;SDS011;10399;50.754;3.366;2023-09-07T07:13:29;18.52;;;9.27;;
20480;SDS011;10399;50.754;3.366;2023-09-07T07:15:56;17.48;;;9.35;;
20480;SDS011;10399;50.754;3.366;2023-09-07T07:18:24;18.52;;;9.50;;
20480;SDS011;10399;50.754;3.366;2023-09-07T07:20:51;17.30;;;8.73;;
20480;SDS011;10399;50.754;3.366;2023-09-07T07:23:18;19.48;;;9.50;;
20480;SDS011;10399;50.754;3.366;2023-09-07T07:25:45;19.45;;;8.20;;
20480;SDS011;10399;50.754;3.366;2023-09-07T07:28:12;18.33;;;8.35;;
20480;SDS011;10399;50.754;3.366;2023-09-07T07:30:39;12.30;;;8.18;;
20480;SDS011;10399;50.754;3.366;2023-09-07T07:33:06;15.25;;;8.32;;
20480;SDS011;10399;50.754;3.366;2023-09-07T07:35:34;18.73;;;8.13;;
20480;SDS011;10399;50.754;3.366;2023-09-07T07:38:02;11.23;;;8.20;;
20480;SDS011;10399;50.754;3.366;2023-09-07T07:40:30;12.13;;;7.65;;
20480;SDS011;10399;50.754;3.366;2023-09-07T07:42:57;19.67;;;14.43;;
20480;SDS011;10399;50.754;3.366;2023-09-07T07:45:24;15.85;;;7.88;;
20480;SDS011;10399;50.754;3.366;2023-09-07T07:47:51;12.48;;;7.07;;
20480;SDS011;10399;50.754;3.366;2023-09-07T07:50:19;10.63;;;7.80;;
20480;SDS011;10399;50.754;3.366;2023-09-07T07:52:46;10.63;;;7.07;;
20480;SDS011;10399;50.754;3.366;2023-09-07T07:55:14;13.75;;;7.25;;
20480;SDS011;10399;50.754;3.366;2023-09-07T07:57:41;12.20;;;7.30;;
20480;SDS011;10399;50.754;3.366;2023-09-07T08:00:10;12.13;;;7.82;;
20480;SDS011;10399;50.754;3.366;2023-09-07T08:02:37;12.13;;;6.93;;
20480;SDS011;10399;50.754;3.366;2023-09-07T08:05:05;19.08;;;7.68;;
20480;SDS011;10399;50.754;3.366;2023-09-07T08:07:33;12.40;;;6.25;;
20480;SDS011;10399;50.754;3.366;2023-09-07T08:10:00;8.85;;;5.88;;
20480;SDS011;10399;50.754;3.366;2023-09-07T08:12:27;12.35;;;6.15;;
20480;SDS011;10399;50.754;3.366;2023-09-07T08:14:54;7.45;;;5.75;;
20480;SDS011;10399;50.754;3.366;2023-09-07T08:17:22;7.75;;;5.18;;
20480;SDS011;10399;50.754;3.366;2023-09-07T08:19:50;10.77;;;6.35;;
20480;SDS011;10399;50.754;3.366;2023-09-07T08:22:22;9.60;;;5.88;;
20480;SDS011;10399;50.754;3.366;2023-09-07T08:24:49;14.13;;;6.18;;
20480;SDS011;10399;50.754;3.366;2023-09-07T08:27:17;11.80;;;6.65;;
20480;SDS011;10399;50.754;3.366;2023-09-07T08:29:44;11.65;;;5.80;;
20480;SDS011;10399;50.754;3.366;2023-09-07T08:32:18;10.85;;;5.88;;
20480;SDS011;10399;50.754;3.366;2023-09-07T08:34:45;11.00;;;5.60;;
20480;SDS011;10399;50.754;3.366;2023-09-07T08:37:12;8.60;;;5.50;;
20480;SDS011;10399;50.754;3.366;2023-09-07T08:39:39;7.60;;;5.40;;
20480;SDS011;10399;50.754;3.366;2023-09-07T08:42:06;9.48;;;5.57;;
20480;SDS011;10399;50.754;3.366;2023-09-07T08:44:34;10.68;;;5.85;;
20480;SDS011;10399;50.754;3.366;2023-09-07T08:47:03;9.35;;;5.55;;
20480;SDS011;10399;50.754;3.366;2023-09-07T08:49:32;10.93;;;5.95;;
20480;SDS011;10399;50.754;3.366;2023-09-07T08:51:59;11.30;;;5.35;;
20480;SDS011;10399;50.754;3.366;2023-09-07T08:54:28;8.02;;;5.43;;
20480;SDS011;10399;50.754;3.366;2023-09-07T08:56:56;7.82;;;5.15;;
20480;SDS011;10399;50.754;3.366;2023-09-07T08:59:24;7.05;;;5.20;;
20480;SDS011;10399;50.754;3.366;2023-09-07T09:01:55;13.55;;;4.95;;
20480;SDS011;10399;50.754;3.366;2023-09-07T09:04:25;7.65;;;4.35;;
20480;SDS011;10399;50.754;3.366;2023-09-07T09:06:54;6.50;;;5.15;;
20480;SDS011;10399;50.754;3.366;2023-09-07T09:09:22;9.23;;;5.55;;
20480;SDS011;10399;50.754;3.366;2023-09-07T09:11:53;7.00;;;5.03;;
20480;SDS011;10399;50.754;3.366;2023-09-07T09:14:20;11.13;;;5.40;;
20480;SDS011;10399;50.754;3.366;2023-09-07T09:16:49;11.27;;;4.80;;
20480;SDS011;10399;50.754;3.366;2023-09-07T09:19:17;6.63;;;4.72;;
20480;SDS011;10399;50.754;3.366;2023-09-07T09:21:44;8.02;;;4.90;;
20480;SDS011;10399;50.754;3.366;2023-09-07T09:24:12;5.85;;;4.47;;
20480;SDS011;10399;50.754;3.366;2023-09-07T09:26:40;9.35;;;5.07;;
20480;SDS011;10399;50.754;3.366;2023-09-07T09:29:08;11.88;;;5.40;;
20480;SDS011;10399;50.754;3.366;2023-09-07T09:31:36;7.05;;;5.00;;
20480;SDS011;10399;50.754;3.366;2023-09-07T09:34:03;7.70;;;4.53;;
20480;SDS011;10399;50.754;3.366;2023-09-07T09:36:35;7.70;;;4.90;;
20480;SDS011;10399;50.754;3.366;2023-09-07T09:39:03;6.82;;;4.32;;
20480;SDS011;10399;50.754;3.366;2023-09-07T09:41:31;7.82;;;4.93;;
20480;SDS011;10399;50.754;3.366;2023-09-07T09:44:05;7.72;;;4.57;;
20480;SDS011;10399;50.754;3.366;2023-09-07T09:46:34;11.35;;;5.50;;
20480;SDS011;10399;50.754;3.366;2023-09-07T09:49:02;6.57;;;5.10;;
20480;SDS011;10399;50.754;3.366;2023-09-07T09:51:31;8.98;;;4.75;;
20480;SDS011;10399;50.754;3.366;2023-09-07T09:54:00;8.05;;;4.63;;
20480;SDS011;10399;50.754;3.366;2023-09-07T09:56:28;6.75;;;4.10;;
20480;SDS011;10399;50.754;3.366;2023-09-07T09:58:55;5.22;;;4.35;;
20480;SDS011;10399;50.754;3.366;2023-09-07T10:01:22;7.50;;;4.20;;
20480;SDS011;10399;50.754;3.366;2023-09-07T10:03:50;7.70;;;4.65;;
20480;SDS011;10399;50.754;3.366;2023-09-07T10:06:18;5.85;;;4.53;;
20480;SDS011;10399;50.754;3.366;2023-09-07T10:09:02;6.50;;;4.45;;
20480;SDS011;10399;50.754;3.366;2023-09-07T10:11:34;8.40;;;4.32;;
20480;SDS011;10399;50.754;3.366;2023-09-07T10:14:06;6.38;;;4.30;;
20480;SDS011;10399;50.754;3.366;2023-09-07T10:16:41;5.00;;;4.18;;
20480;SDS011;10399;50.754;3.366;2023-09-07T10:19:19;8.70;;;4.10;;
20480;SDS011;10399;50.754;3.366;2023-09-07T10:21:48;6.75;;;4.40;;
20480;SDS011;10399;50.754;3.366;2023-09-07T10:24:33;5.68;;;3.90;;
20480;SDS011;10399;50.754;3.366;2023-09-07T10:27:06;10.38;;;4.55;;
20480;SDS011;10399;50.754;3.366;2023-09-07T10:30:07;4.40;;;3.90;;
20480;SDS011;10399;50.754;3.366;2023-09-07T10:32:38;6.80;;;4.10;;
20480;SDS011;10399;50.754;3.366;2023-09-07T10:35:13;7.68;;;4.43;;
20480;SDS011;10399;50.754;3.366;2023-09-07T10:37:52;5.78;;;4.45;;
20480;SDS011;10399;50.754;3.366;2023-09-07T10:40:22;6.65;;;4.03;;
20480;SDS011;10399;50.754;3.366;2023-09-07T10:42:49;6.13;;;4.03;;
20480;SDS011;10399;50.754;3.366;2023-09-07T10:45:26;10.60;;;4.70;;
20480;SDS011;10399;50.754;3.366;2023-09-07T10:47:53;10.90;;;4.88;;
20480;SDS011;10399;50.754;3.366;2023-09-07T10:50:20;7.18;;;4.25;;
20480;SDS011;10399;50.754;3.366;2023-09-07T10:52:47;8.52;;;4.25;;
20480;SDS011;10399;50.754;3.366;2023-09-07T10:55:15;6.35;;;4.38;;
20480;SDS011;10399;50.754;3.366;2023-09-07T10:57:46;8.15;;;4.43;;
20480;SDS011;10399;50.754;3.366;2023-09-07T11:00:14;6.38;;;4.45;;
20480;SDS011;10399;50.754;3.366;2023-09-07T11:02:42;6.20;;;3.75;;
20480;SDS011;10399;50.754;3.366;2023-09-07T11:05:10;6.82;;;4.03;;
20480;SDS011;10399;50.754;3.366;2023-09-07T11:07:37;4.93;;;3.38;;
20480;SDS011;10399;50.754;3.366;2023-09-07T11:10:07;6.38;;;3.63;;
20480;SDS011;10399;50.754;3.366;2023-09-07T11:12:38;5.53;;;4.30;;
20480;SDS011;10399;50.754;3.366;2023-09-07T11:15:10;6.38;;;4.10;;
20480;SDS011;10399;50.754;3.366;2023-09-07T11:17:38;7.03;;;3.75;;
20480;SDS011;10399;50.754;3.366;2023-09-07T11:20:07;10.05;;;4.43;;
20480;SDS011;10399;50.754;3.366;2023-09-07T11:22:37;6.70;;;4.35;;
20480;SDS011;10399;50.754;3.366;2023-09-07T11:25:20;5.40;;;3.90;;
20480;SDS011;10399;50.754;3.366;2023-09-07T11:27:47;10.32;;;4.40;;
20480;SDS011;10399;50.754;3.366;2023-09-07T11:30:14;6.43;;;4.47;;
20480;SDS011;10399;50.754;3.366;2023-09-07T11:32:42;6.75;;;4.00;;
20480;SDS011;10399;50.754;3.366;2023-09-07T11:35:09;9.55;;;5.70;;
20480;SDS011;10399;50.754;3.366;2023-09-07T11:37:36;11.45;;;5.40;;
20480;SDS011;10399;50.754;3.366;2023-09-07T11:40:04;7.13;;;4.93;;
20480;SDS011;10399;50.754;3.366;2023-09-07T11:42:38;8.88;;;5.40;;
20480;SDS011;10399;50.754;3.366;2023-09-07T11:45:06;11.80;;;5.10;;
20480;SDS011;10399;50.754;3.366;2023-09-07T11:47:34;7.65;;;4.47;;
20480;SDS011;10399;50.754;3.366;2023-09-07T11:50:02;9.27;;;4.70;;
20480;SDS011;10399;50.754;3.366;2023-09-07T11:52:29;8.65;;;4.45;;
20480;SDS011;10399;50.754;3.366;2023-09-07T11:54:57;9.40;;;4.72;;
20480;SDS011;10399;50.754;3.366;2023-09-07T11:57:24;18.15;;;4.65;;
20480;SDS011;10399;50.754;3.366;2023-09-07T11:59:51;4.70;;;3.67;;
20480;SDS011;10399;50.754;3.366;2023-09-07T12:02:24;8.13;;;4.25;;
20480;SDS011;10399;50.754;3.366;2023-09-07T12:04:51;8.68;;;4.40;;
20480;SDS011;10399;50.754;3.366;2023-09-07T12:07:20;9.20;;;4.20;;
20480;SDS011;10399;50.754;3.366;2023-09-07T12:09:48;12.18;;;4.70;;
20480;SDS011;10399;50.754;3.366;2023-09-07T12:12:15;8.07;;;4.55;;
20480;SDS011;10399;50.754;3.366;2023-09-07T12:14:42;5.50;;;4.00;;
20480;SDS011;10399;50.754;3.366;2023-09-07T12:17:10;10.55;;;4.80;;
20480;SDS011;10399;50.754;3.366;2023-09-07T12:19:37;8.45;;;4.40;;
20480;SDS011;10399;50.754;3.366;2023-09-07T12:22:04;9.13;;;4.45;;
20480;SDS011;10399;50.754;3.366;2023-09-07T12:24:31;11.27;;;4.38;;
20480;SDS011;10399;50.754;3.366;2023-09-07T12:26:58;5.20;;;4.32;;
20480;SDS011;10399;50.754;3.366;2023-09-07T12:29:26;9.35;;;4.35;;
20480;SDS011;10399;50.754;3.366;2023-09-07T12:31:53;7.05;;;4.50;;
20480;SDS011;10399;50.754;3.366;2023-09-07T12:34:20;5.40;;;4.13;;
20480;SDS011;10399;50.754;3.366;2023-09-07T12:36:47;12.90;;;4.47;;
20480;SDS011;10399;50.754;3.366;2023-09-07T12:39:15;6.57;;;4.13;;
20480;SDS011;10399;50.754;3.366;2023-09-07T12:41:43;7.32;;;4.22;;
20480;SDS011;10399;50.754;3.366;2023-09-07T12:44:10;9.35;;;4.10;;
20480;SDS011;10399;50.754;3.366;2023-09-07T12:46:37;6.25;;;4.43;;
20480;SDS011;10399;50.754;3.366;2023-09-07T12:49:04;8.55;;;4.00;;
20480;SDS011;10399;50.754;3.366;2023-09-07T12:51:32;7.35;;;4.22;;
20480;SDS011;10399;50.754;3.366;2023-09-07T12:53:59;10.00;;;3.95;;
20480;SDS011;10399;50.754;3.366;2023-09-07T12:56:26;5.28;;;3.70;;
20480;SDS011;10399;50.754;3.366;2023-09-07T12:58:53;7.50;;;4.05;;
20480;SDS011;10399;50.754;3.366;2023-09-07T13:01:23;7.55;;;3.83;;
20480;SDS011;10399;50.754;3.366;2023-09-07T13:03:50;6.68;;;3.90;;
20480;SDS011;10399;50.754;3.366;2023-09-07T13:06:18;8.60;;;4.05;;
20480;SDS011;10399;50.754;3.366;2023-09-07T13:08:45;7.93;;;4.30;;
20480;SDS011;10399;50.754;3.366;2023-09-07T13:11:12;6.55;;;4.18;;
20480;SDS011;10399;50.754;3.366;2023-09-07T13:13:39;8.43;;;4.47;;
20480;SDS011;10399;50.754;3.366;2023-09-07T13:16:06;10.60;;;4.07;;
20480;SDS011;10399;50.754;3.366;2023-09-07T13:18:33;5.50;;;3.92;;
20480;SDS011;10399;50.754;3.366;2023-09-07T13:21:00;6.35;;;3.95;;
20480;SDS011;10399;50.754;3.366;2023-09-07T13:23:28;11.93;;;4.82;;
20480;SDS011;10399;50.754;3.366;2023-09-07T13:25:56;6.57;;;4.43;;
20480;SDS011;10399;50.754;3.366;2023-09-07T13:28:23;6.82;;;4.50;;
20480;SDS011;10399;50.754;3.366;2023-09-07T13:30:50;11.48;;;4.57;;
20480;SDS011;10399;50.754;3.366;2023-09-07T13:33:17;13.32;;;4.10;;
20480;SDS011;10399;50.754;3.366;2023-09-07T13:35:45;10.35;;;4.15;;
20480;SDS011;10399;50.754;3.366;2023-09-07T13:38:12;12.30;;;3.92;;
20480;SDS011;10399;50.754;3.366;2023-09-07T13:40:39;9.15;;;4.05;;
20480;SDS011;10399;50.754;3.366;2023-09-07T13:43:06;11.15;;;4.15;;
20480;SDS011;10399;50.754;3.366;2023-09-07T13:45:33;9.73;;;4.38;;
20480;SDS011;10399;50.754;3.366;2023-09-07T13:48:00;9.10;;;4.45;;
20480;SDS011;10399;50.754;3.366;2023-09-07T13:50:28;7.70;;;3.97;;
20480;SDS011;10399;50.754;3.366;2023-09-07T13:52:56;9.88;;;4.25;;
20480;SDS011;10399;50.754;3.366;2023-09-07T13:55:24;6.53;;;3.80;;
20480;SDS011;10399;50.754;3.366;2023-09-07T13:57:52;5.38;;;3.72;;
20480;SDS011;10399;50.754;3.366;2023-09-07T14:00:19;7.82;;;4.18;;
20480;SDS011;10399;50.754;3.366;2023-09-07T14:02:45;5.68;;;3.60;;
20480;SDS011;10399;50.754;3.366;2023-09-07T14:05:13;13.63;;;4.55;;
20480;SDS011;10399;50.754;3.366;2023-09-07T14:07:40;8.82;;;4.07;;
20480;SDS011;10399;50.754;3.366;2023-09-07T14:10:07;9.80;;;4.32;;
20480;SDS011;10399;50.754;3.366;2023-09-07T14:12:34;6.30;;;4.22;;
20480;SDS011;10399;50.754;3.366;2023-09-07T14:15:01;7.07;;;4.03;;
20480;SDS011;10399;50.754;3.366;2023-09-07T14:17:28;8.38;;;4.18;;
20480;SDS011;10399;50.754;3.366;2023-09-07T14:19:55;7.03;;;4.38;;
20480;SDS011;10399;50.754;3.366;2023-09-07T14:22:22;10.38;;;3.97;;
20480;SDS011;10399;50.754;3.366;2023-09-07T14:24:49;11.00;;;4.50;;
20480;SDS011;10399;50.754;3.366;2023-09-07T14:27:16;9.40;;;4.07;;
20480;SDS011;10399;50.754;3.366;2023-09-07T14:29:43;8.43;;;3.95;;
20480;SDS011;10399;50.754;3.366;2023-09-07T14:32:10;9.48;;;4.40;;
20480;SDS011;10399;50.754;3.366;2023-09-07T14:34:37;7.97;;;3.90;;
20480;SDS011;10399;50.754;3.366;2023-09-07T14:37:04;6.88;;;4.10;;
20480;SDS011;10399;50.754;3.366;2023-09-07T14:39:31;9.55;;;3.97;;
20480;SDS011;10399;50.754;3.366;2023-09-07T14:41:58;11.10;;;4.28;;
20480;SDS011;10399;50.754;3.366;2023-09-07T14:44:27;7.70;;;3.72;;